Terminal Aerodrome Forecast
Issued by NWS

Current Version | Previous Version | Text Only | Print | Product List | Glossary On
Versions: 1 2 3 4 5 6 7 8 9 10 11 12 13 14 15 16 17 18 19 20 21 22 23 24
000
FTUS44 KOUN 301124
TAFCSM
TAF
KCSM 301124Z 3012/3112 VRB04KT P6SM SCT080 BKN120
     FM301500 07008KT P6SM SCT120 BKN250 PROB30 3021/3103 3SM TSRA
      BKN030CB BKN100
     FM310300 10006KT P6SM SCT050 BKN100=

USA.gov is the U.S. government's official web portal to all federal, state and local government web resources and services.